Time;durP1;ratioP1;P1;durP2;ratioP2;P2;SDS_P1;SDS_P2;PMS_P1;PMS_P2;Temp;Humidity;BMP_temperature;BMP_pressure;BME280_temperature;BME280_humidity;BME280_pressure;Samples;Min_cycle;Max_cycle;Signal;HPM_P1;HPM_P2
2023/09/14 00:00:14;;;;;;;1.75;1.00;;;;;;;;;;5011842;28;20044;-74
2023/09/14 00:02:39;;;;;;;2.13;1.30;;;;;;;;;;5031476;28;20083;-75
2023/09/14 00:05:06;;;;;;;1.92;1.27;;;;;;;;;;5014410;28;20091;-74
2023/09/14 00:07:32;;;;;;;2.53;1.40;;;;;;;;;;5019145;28;20127;-74
2023/09/14 00:09:58;;;;;;;2.72;1.30;;;;;;;;;;5040429;28;20123;-75
2023/09/14 00:12:23;;;;;;;3.45;1.65;;;;;;;;;;5072299;28;20040;-74
2023/09/14 00:14:48;;;;;;;4.90;1.65;;;;;;;;;;5058096;28;20120;-74
2023/09/14 00:17:14;;;;;;;4.45;1.40;;;;;;;;;;5061794;28;20578;-74
2023/09/14 00:19:39;;;;;;;3.40;1.13;;;;;;;;;;5036666;28;20033;-74
2023/09/14 00:22:05;;;;;;;3.50;1.25;;;;;;;;;;5032158;28;20045;-74
2023/09/14 00:24:30;;;;;;;4.13;1.30;;;;;;;;;;5018242;28;20042;-74
2023/09/14 00:26:55;;;;;;;2.92;1.10;;;;;;;;;;5018069;28;20037;-74
2023/09/14 00:29:21;;;;;;;3.70;1.38;;;;;;;;;;5011845;28;20037;-74
2023/09/14 00:31:46;;;;;;;1.83;1.25;;;;;;;;;;5019590;28;20631;-74
2023/09/14 00:34:11;;;;;;;3.08;1.13;;;;;;;;;;5018181;28;20041;-75
2023/09/14 00:36:37;;;;;;;1.88;0.98;;;;;;;;;;5037279;28;20525;-74
2023/09/14 00:39:03;;;;;;;2.55;1.20;;;;;;;;;;5023919;28;20033;-75
2023/09/14 00:41:29;;;;;;;2.85;1.20;;;;;;;;;;5020371;28;20150;-75
2023/09/14 00:43:54;;;;;;;1.88;1.10;;;;;;;;;;5006734;28;20149;-75
2023/09/14 00:46:20;;;;;;;1.60;1.00;;;;;;;;;;5021436;28;20098;-74
2023/09/14 00:48:45;;;;;;;2.70;1.30;;;;;;;;;;5026416;28;20554;-74
2023/09/14 00:51:11;;;;;;;3.80;1.35;;;;;;;;;;5016303;28;20715;-74
2023/09/14 00:53:36;;;;;;;3.20;1.20;;;;;;;;;;5028114;28;20044;-74
2023/09/14 00:56:03;;;;;;;2.03;0.98;;;;;;;;;;5023458;28;20118;-74
2023/09/14 00:58:28;;;;;;;1.95;1.08;;;;;;;;;;5013362;28;20573;-74
2023/09/14 01:00:55;;;;;;;3.40;1.00;;;;;;;;;;5015238;28;20124;-75
2023/09/14 01:03:20;;;;;;;3.47;1.05;;;;;;;;;;5018760;28;20036;-75
2023/09/14 01:05:48;;;;;;;1.85;0.90;;;;;;;;;;5026996;28;20386;-74
2023/09/14 01:08:14;;;;;;;1.50;0.88;;;;;;;;;;5031689;28;20112;-74
2023/09/14 01:10:39;;;;;;;1.73;0.93;;;;;;;;;;5028386;28;20132;-73
2023/09/14 01:13:11;;;;;;;2.30;1.17;;;;;;;;;;4991712;28;20588;-73
2023/09/14 01:15:47;;;;;;;1.40;0.80;;;;;;;;;;5018607;28;20040;-74
2023/09/14 01:18:40;;;;;;;2.53;1.15;;;;;;;;;;5026947;28;20086;-74
2023/09/14 01:21:50;;;;;;;3.85;1.30;;;;;;;;;;5034009;28;20382;-74
2023/09/14 01:24:42;;;;;;;1.92;1.20;;;;;;;;;;4967985;28;20052;-73
2023/09/14 01:27:08;;;;;;;3.67;1.05;;;;;;;;;;5041605;28;20042;-74
2023/09/14 01:29:33;;;;;;;1.90;0.95;;;;;;;;;;5057129;28;20037;-74
2023/09/14 01:31:58;;;;;;;2.95;1.25;;;;;;;;;;5033442;28;20076;-74
2023/09/14 01:34:24;;;;;;;4.03;1.27;;;;;;;;;;5020704;28;20131;-73
2023/09/14 01:37:02;;;;;;;4.50;1.40;;;;;;;;;;5032212;28;20056;-74
2023/09/14 01:39:29;;;;;;;2.83;1.27;;;;;;;;;;5009854;28;20037;-74
2023/09/14 01:41:55;;;;;;;4.18;1.13;;;;;;;;;;5033115;28;20061;-74
2023/09/14 01:44:27;;;;;;;1.45;0.93;;;;;;;;;;5023846;28;20033;-73
2023/09/14 01:46:56;;;;;;;1.20;1.10;;;;;;;;;;5034415;28;20033;-74
2023/09/14 01:49:22;;;;;;;1.75;0.80;;;;;;;;;;5020560;28;20033;-73
2023/09/14 01:51:47;;;;;;;2.63;1.40;;;;;;;;;;5028548;28;20029;-74
2023/09/14 01:54:13;;;;;;;3.78;1.20;;;;;;;;;;5021127;28;20041;-74
2023/09/14 01:56:38;;;;;;;2.17;0.98;;;;;;;;;;5038736;28;20131;-74
2023/09/14 01:59:04;;;;;;;3.08;1.40;;;;;;;;;;5029778;28;20037;-74
2023/09/14 02:01:29;;;;;;;4.18;1.30;;;;;;;;;;5028357;28;20065;-74
2023/09/14 02:03:55;;;;;;;1.60;1.20;;;;;;;;;;5021125;28;20066;-73
2023/09/14 02:06:20;;;;;;;2.60;1.10;;;;;;;;;;5028260;28;20086;-74
2023/09/14 02:08:46;;;;;;;1.77;1.13;;;;;;;;;;5034496;28;20039;-74
2023/09/14 02:11:13;;;;;;;2.20;1.10;;;;;;;;;;5018043;28;20034;-73
2023/09/14 02:13:39;;;;;;;2.63;1.77;;;;;;;;;;5028195;28;20033;-74
2023/09/14 02:16:05;;;;;;;2.00;1.13;;;;;;;;;;5038003;28;20060;-74
2023/09/14 02:18:30;;;;;;;2.85;1.00;;;;;;;;;;5021105;28;20501;-74
2023/09/14 02:20:55;;;;;;;3.70;1.30;;;;;;;;;;5029803;28;20037;-73
2023/09/14 02:23:21;;;;;;;1.92;1.00;;;;;;;;;;5030561;28;20076;-74
2023/09/14 02:25:46;;;;;;;2.65;1.10;;;;;;;;;;5025458;28;20517;-74
2023/09/14 02:28:13;;;;;;;2.00;0.95;;;;;;;;;;5021621;28;20072;-74
2023/09/14 02:30:39;;;;;;;2.28;0.98;;;;;;;;;;5031000;28;20045;-74
2023/09/14 02:33:06;;;;;;;1.67;0.85;;;;;;;;;;5008355;28;20052;-74
2023/09/14 02:35:32;;;;;;;1.60;1.00;;;;;;;;;;5011621;28;20049;-74
2023/09/14 02:37:57;;;;;;;2.33;0.93;;;;;;;;;;5036775;28;20033;-75
2023/09/14 02:40:22;;;;;;;2.97;1.08;;;;;;;;;;5042304;28;20095;-74
2023/09/14 02:42:48;;;;;;;1.73;0.80;;;;;;;;;;5038155;28;20064;-74
2023/09/14 02:45:13;;;;;;;1.85;0.80;;;;;;;;;;5037167;28;20114;-74
2023/09/14 02:47:38;;;;;;;1.58;0.85;;;;;;;;;;5033365;28;20502;-74
2023/09/14 02:50:04;;;;;;;4.05;0.90;;;;;;;;;;5024578;28;20061;-74
2023/09/14 02:52:29;;;;;;;1.42;0.80;;;;;;;;;;5020274;28;20049;-74
2023/09/14 02:54:55;;;;;;;3.10;1.20;;;;;;;;;;5012085;28;20125;-74
2023/09/14 02:57:20;;;;;;;1.80;0.93;;;;;;;;;;5025515;28;20082;-74
2023/09/14 02:59:46;;;;;;;6.40;1.15;;;;;;;;;;5037571;28;20402;-75
2023/09/14 03:02:11;;;;;;;3.20;1.40;;;;;;;;;;5033584;28;20037;-75
2023/09/14 03:04:36;;;;;;;2.17;1.00;;;;;;;;;;5013787;28;20041;-75
2023/09/14 03:07:02;;;;;;;2.55;1.00;;;;;;;;;;5023093;28;20067;-75
2023/09/14 03:09:27;;;;;;;1.83;0.88;;;;;;;;;;5033870;28;20071;-75
2023/09/14 03:11:54;;;;;;;2.08;0.98;;;;;;;;;;5031068;28;20037;-75
2023/09/14 03:14:20;;;;;;;3.00;1.10;;;;;;;;;;5019840;28;20041;-75
2023/09/14 03:16:45;;;;;;;2.55;0.93;;;;;;;;;;4995834;28;20517;-75
2023/09/14 03:19:10;;;;;;;2.40;0.95;;;;;;;;;;4993247;28;20503;-75
2023/09/14 03:21:36;;;;;;;3.65;1.38;;;;;;;;;;5030928;28;20097;-75
2023/09/14 03:24:01;;;;;;;2.38;0.80;;;;;;;;;;5021814;28;20472;-75
2023/09/14 03:26:27;;;;;;;1.42;0.80;;;;;;;;;;5026642;28;20036;-75
2023/09/14 03:28:53;;;;;;;2.70;1.02;;;;;;;;;;5024379;28;20057;-75
2023/09/14 03:31:18;;;;;;;2.22;1.00;;;;;;;;;;5028211;28;20041;-75
2023/09/14 03:33:49;;;;;;;1.38;0.98;;;;;;;;;;5012711;28;20033;-75
2023/09/14 03:36:16;;;;;;;3.85;1.25;;;;;;;;;;5003937;28;20214;-75
2023/09/14 03:38:41;;;;;;;2.42;1.20;;;;;;;;;;5029319;28;20088;-74
2023/09/14 03:41:07;;;;;;;1.77;1.08;;;;;;;;;;5027091;28;20529;-75
2023/09/14 03:43:32;;;;;;;3.45;1.25;;;;;;;;;;5024266;28;20045;-75
2023/09/14 03:45:57;;;;;;;2.45;1.10;;;;;;;;;;5025191;28;20093;-75
2023/09/14 03:48:23;;;;;;;3.47;1.55;;;;;;;;;;5008605;28;20036;-75
2023/09/14 03:50:49;;;;;;;2.25;1.02;;;;;;;;;;5020563;28;20134;-74
2023/09/14 03:53:14;;;;;;;3.92;0.90;;;;;;;;;;5027088;28;20167;-75
2023/09/14 03:55:40;;;;;;;1.90;1.05;;;;;;;;;;5036887;28;20090;-74
2023/09/14 03:58:05;;;;;;;2.22;0.93;;;;;;;;;;5024983;28;20033;-75
2023/09/14 04:00:31;;;;;;;3.97;1.10;;;;;;;;;;5007229;28;20045;-75
2023/09/14 04:02:56;;;;;;;2.30;1.00;;;;;;;;;;5015391;28;20168;-75
2023/09/14 04:05:22;;;;;;;1.38;0.90;;;;;;;;;;5013393;28;20087;-75
2023/09/14 04:07:48;;;;;;;1.17;0.63;;;;;;;;;;5016017;28;20128;-75
2023/09/14 04:10:13;;;;;;;2.42;1.13;;;;;;;;;;5019915;28;20034;-74
2023/09/14 04:12:40;;;;;;;2.58;1.27;;;;;;;;;;5028589;28;20071;-75
2023/09/14 04:15:06;;;;;;;2.65;1.10;;;;;;;;;;5021731;28;20079;-74
2023/09/14 04:17:32;;;;;;;2.15;1.30;;;;;;;;;;5016658;28;20045;-74
2023/09/14 04:19:57;;;;;;;4.18;1.40;;;;;;;;;;5012400;28;20037;-74
2023/09/14 04:22:22;;;;;;;4.80;1.48;;;;;;;;;;5024977;28;20102;-74
2023/09/14 04:24:49;;;;;;;2.83;1.20;;;;;;;;;;5032908;28;20044;-74
2023/09/14 04:27:14;;;;;;;0.95;0.75;;;;;;;;;;5017288;28;20044;-75
2023/09/14 04:29:40;;;;;;;2.05;0.95;;;;;;;;;;5017167;28;20045;-75
2023/09/14 04:32:06;;;;;;;0.88;0.60;;;;;;;;;;5028569;28;20037;-75
2023/09/14 04:34:32;;;;;;;1.35;0.80;;;;;;;;;;5013607;28;20061;-75
2023/09/14 04:36:58;;;;;;;0.80;0.50;;;;;;;;;;5023478;28;20033;-75
2023/09/14 04:39:23;;;;;;;1.38;0.70;;;;;;;;;;5031326;28;20663;-75
2023/09/14 04:41:49;;;;;;;5.93;1.40;;;;;;;;;;5013514;28;20287;-75
2023/09/14 04:44:14;;;;;;;2.92;0.90;;;;;;;;;;5005463;28;20586;-75
2023/09/14 04:46:40;;;;;;;2.58;0.93;;;;;;;;;;5031481;28;20044;-75
2023/09/14 04:49:05;;;;;;;2.95;1.17;;;;;;;;;;5024818;28;20041;-75
2023/09/14 04:51:31;;;;;;;4.13;1.30;;;;;;;;;;5010236;28;20353;-75
2023/09/14 04:53:56;;;;;;;1.20;1.05;;;;;;;;;;5016276;28;20489;-75
2023/09/14 04:56:21;;;;;;;3.10;0.90;;;;;;;;;;5015191;28;20043;-75
2023/09/14 04:58:47;;;;;;;1.38;0.60;;;;;;;;;;5007577;28;20088;-75
2023/09/14 05:01:12;;;;;;;3.60;1.67;;;;;;;;;;5013808;28;20521;-75
2023/09/14 05:03:39;;;;;;;3.65;1.50;;;;;;;;;;5014748;28;20144;-75
2023/09/14 05:06:04;;;;;;;4.15;1.58;;;;;;;;;;5011342;28;20038;-74
2023/09/14 05:08:30;;;;;;;5.03;1.55;;;;;;;;;;5026161;28;20068;-75
2023/09/14 05:10:56;;;;;;;6.10;1.45;;;;;;;;;;5013049;28;20615;-75
2023/09/14 05:13:21;;;;;;;3.33;1.35;;;;;;;;;;5023485;28;20120;-76
2023/09/14 05:15:47;;;;;;;4.60;1.70;;;;;;;;;;5054683;28;20559;-75
2023/09/14 05:18:13;;;;;;;1.70;1.40;;;;;;;;;;5058431;28;20082;-74
2023/09/14 05:20:46;;;;;;;4.97;1.85;;;;;;;;;;5036334;28;20362;-74
2023/09/14 05:23:12;;;;;;;4.88;1.77;;;;;;;;;;5051686;28;20036;-74
2023/09/14 05:25:37;;;;;;;4.50;1.33;;;;;;;;;;5039041;28;20040;-74
2023/09/14 05:28:03;;;;;;;2.60;1.48;;;;;;;;;;5051260;28;20541;-74
2023/09/14 05:30:28;;;;;;;3.03;1.33;;;;;;;;;;5053338;28;20032;-74
2023/09/14 05:32:54;;;;;;;3.97;1.60;;;;;;;;;;5053002;28;20032;-74
2023/09/14 05:35:19;;;;;;;5.53;1.92;;;;;;;;;;5058921;28;20036;-74
2023/09/14 05:37:45;;;;;;;4.80;2.20;;;;;;;;;;5037387;28;20099;-74
2023/09/14 05:40:12;;;;;;;4.63;2.20;;;;;;;;;;5003842;28;20517;-75
2023/09/14 05:42:41;;;;;;;2.90;1.70;;;;;;;;;;5018046;28;20037;-74
2023/09/14 05:45:08;;;;;;;4.78;2.40;;;;;;;;;;5025726;28;20526;-75
2023/09/14 05:47:34;;;;;;;5.30;2.50;;;;;;;;;;5017278;28;20133;-75
2023/09/14 05:49:59;;;;;;;7.07;2.70;;;;;;;;;;5012013;28;20823;-75
2023/09/14 05:52:25;;;;;;;4.72;2.25;;;;;;;;;;5039330;28;20536;-75
2023/09/14 05:54:50;;;;;;;5.03;2.60;;;;;;;;;;5012912;28;20041;-75
2023/09/14 05:57:16;;;;;;;5.40;2.35;;;;;;;;;;5037087;28;20056;-75
2023/09/14 05:59:42;;;;;;;6.70;3.00;;;;;;;;;;5020841;28;20030;-75
2023/09/14 06:02:08;;;;;;;8.50;3.38;;;;;;;;;;5017953;28;20084;-75
2023/09/14 06:04:34;;;;;;;5.85;3.22;;;;;;;;;;5017958;28;20041;-75
2023/09/14 06:07:00;;;;;;;7.80;3.03;;;;;;;;;;5013112;28;20040;-75
2023/09/14 06:09:29;;;;;;;5.80;3.00;;;;;;;;;;5037185;28;20112;-75
2023/09/14 06:11:55;;;;;;;6.90;3.10;;;;;;;;;;5036002;28;20122;-75
2023/09/14 06:14:20;;;;;;;5.30;3.10;;;;;;;;;;5036346;28;20042;-75
2023/09/14 06:16:46;;;;;;;6.15;2.95;;;;;;;;;;5022452;28;20123;-75
2023/09/14 06:19:11;;;;;;;7.88;3.00;;;;;;;;;;5037237;28;20451;-75
2023/09/14 06:21:37;;;;;;;9.27;3.75;;;;;;;;;;5010942;28;20565;-75
2023/09/14 06:24:02;;;;;;;10.40;4.13;;;;;;;;;;5015384;28;20053;-75
2023/09/14 06:26:32;;;;;;;6.68;4.22;;;;;;;;;;5029765;28;21364;-75
2023/09/14 06:28:57;;;;;;;6.15;3.63;;;;;;;;;;5031509;28;20036;-75
2023/09/14 06:31:23;;;;;;;8.82;4.43;;;;;;;;;;5024292;28;20670;-75
2023/09/14 06:33:51;;;;;;;7.70;3.85;;;;;;;;;;5033971;28;20029;-75
2023/09/14 06:36:18;;;;;;;5.50;3.88;;;;;;;;;;5048672;28;20489;-75
2023/09/14 06:38:45;;;;;;;8.05;3.80;;;;;;;;;;5076597;28;20048;-75
2023/09/14 06:41:12;;;;;;;5.72;3.10;;;;;;;;;;5053823;28;20037;-75
2023/09/14 06:43:39;;;;;;;7.55;3.55;;;;;;;;;;5024830;28;20038;-75
2023/09/14 06:46:04;;;;;;;8.40;3.58;;;;;;;;;;5025351;28;20037;-75
2023/09/14 06:48:30;;;;;;;6.80;3.60;;;;;;;;;;5020850;28;20033;-75
2023/09/14 06:50:55;;;;;;;5.30;3.40;;;;;;;;;;5017817;28;20045;-75
2023/09/14 06:53:20;;;;;;;8.98;3.40;;;;;;;;;;5026411;28;20832;-75
2023/09/14 06:55:46;;;;;;;8.68;4.00;;;;;;;;;;5032755;28;20107;-75
2023/09/14 06:58:13;;;;;;;5.72;3.22;;;;;;;;;;5014879;28;20553;-75
2023/09/14 07:00:38;;;;;;;7.28;3.25;;;;;;;;;;5017930;28;20533;-75
2023/09/14 07:03:04;;;;;;;7.05;2.58;;;;;;;;;;5029205;28;20123;-76
2023/09/14 07:05:30;;;;;;;6.72;2.90;;;;;;;;;;5047194;28;20115;-75
2023/09/14 07:07:56;;;;;;;3.88;2.70;;;;;;;;;;5056859;28;20037;-75
2023/09/14 07:10:21;;;;;;;5.38;2.90;;;;;;;;;;5052913;28;20097;-75
2023/09/14 07:12:48;;;;;;;5.28;3.25;;;;;;;;;;5049907;28;20480;-75
2023/09/14 07:15:13;;;;;;;8.32;3.17;;;;;;;;;;5060291;27;20054;-75
2023/09/14 07:17:38;;;;;;;7.88;3.40;;;;;;;;;;5055459;28;20040;-75
2023/09/14 07:20:04;;;;;;;7.20;3.20;;;;;;;;;;5073962;28;20532;-75
2023/09/14 07:22:30;;;;;;;10.38;5.20;;;;;;;;;;5073305;28;20127;-75
2023/09/14 07:24:55;;;;;;;12.02;5.20;;;;;;;;;;5053668;28;20124;-76
2023/09/14 07:27:22;;;;;;;8.13;4.35;;;;;;;;;;5013035;28;20454;-76
2023/09/14 07:29:48;;;;;;;10.27;5.10;;;;;;;;;;5010424;28;20042;-75
2023/09/14 07:32:14;;;;;;;9.95;4.68;;;;;;;;;;5010032;28;20067;-75
2023/09/14 07:34:39;;;;;;;8.07;3.92;;;;;;;;;;5029581;28;20115;-75
2023/09/14 07:37:04;;;;;;;7.68;4.55;;;;;;;;;;5024328;28;20064;-75
2023/09/14 07:39:30;;;;;;;8.27;4.47;;;;;;;;;;5027698;28;20045;-76
2023/09/14 07:41:56;;;;;;;8.02;4.43;;;;;;;;;;5017145;28;20038;-75
2023/09/14 07:44:22;;;;;;;8.07;4.22;;;;;;;;;;5027110;28;20026;-75
2023/09/14 07:46:48;;;;;;;8.85;3.92;;;;;;;;;;5016015;28;20040;-76
2023/09/14 07:49:13;;;;;;;7.93;4.18;;;;;;;;;;5012354;28;20105;-75
2023/09/14 07:51:38;;;;;;;7.78;3.95;;;;;;;;;;5016390;28;20036;-76
2023/09/14 07:54:04;;;;;;;8.27;3.90;;;;;;;;;;5039223;28;20144;-76
2023/09/14 07:56:29;;;;;;;7.30;3.55;;;;;;;;;;5032204;28;20059;-76
2023/09/14 07:58:56;;;;;;;7.28;3.35;;;;;;;;;;5051553;28;20497;-76
2023/09/14 08:01:22;;;;;;;6.13;3.38;;;;;;;;;;5028002;28;20063;-76
2023/09/14 08:03:47;;;;;;;7.45;3.15;;;;;;;;;;5031157;28;20067;-76
2023/09/14 08:06:12;;;;;;;8.07;3.60;;;;;;;;;;5022116;28;20052;-76
2023/09/14 08:08:38;;;;;;;6.13;2.75;;;;;;;;;;5031587;28;20529;-76
2023/09/14 08:11:04;;;;;;;5.78;2.90;;;;;;;;;;5028424;28;20029;-75
2023/09/14 08:13:29;;;;;;;5.63;2.60;;;;;;;;;;5031149;28;20394;-76
2023/09/14 08:15:55;;;;;;;3.08;1.95;;;;;;;;;;5010783;28;20045;-76
2023/09/14 08:18:20;;;;;;;4.35;2.45;;;;;;;;;;5024130;28;20468;-76
2023/09/14 08:20:46;;;;;;;2.85;1.73;;;;;;;;;;5032370;28;20363;-76
2023/09/14 08:23:15;;;;;;;6.93;2.90;;;;;;;;;;5011187;28;20041;-76
2023/09/14 08:25:43;;;;;;;4.75;2.30;;;;;;;;;;5030254;28;20121;-76
2023/09/14 08:28:19;;;;;;;4.55;2.53;;;;;;;;;;5005878;28;20069;-76
2023/09/14 08:30:46;;;;;;;3.08;2.08;;;;;;;;;;5024246;28;20047;-76
2023/09/14 08:33:12;;;;;;;4.38;2.45;;;;;;;;;;5020219;28;20106;-76
2023/09/14 08:35:38;;;;;;;4.95;2.22;;;;;;;;;;5032792;28;20696;-76
2023/09/14 08:38:06;;;;;;;3.42;2.15;;;;;;;;;;5026481;28;20038;-76
2023/09/14 08:40:33;;;;;;;3.53;2.13;;;;;;;;;;5003127;28;20049;-76
2023/09/14 08:43:00;;;;;;;6.05;2.50;;;;;;;;;;5007771;28;20111;-76
2023/09/14 08:45:28;;;;;;;4.55;1.95;;;;;;;;;;5019559;28;20138;-76
2023/09/14 08:47:55;;;;;;;3.05;1.80;;;;;;;;;;5016051;28;20045;-76
2023/09/14 08:50:23;;;;;;;4.20;1.90;;;;;;;;;;5013983;28;20033;-76
2023/09/14 08:52:49;;;;;;;3.75;1.92;;;;;;;;;;5017080;28;20045;-76
2023/09/14 08:55:18;;;;;;;5.28;1.80;;;;;;;;;;5017374;28;20543;-76
2023/09/14 08:57:45;;;;;;;4.50;1.63;;;;;;;;;;5030085;28;20139;-76
2023/09/14 09:00:17;;;;;;;3.42;1.77;;;;;;;;;;5060529;28;20043;-76
2023/09/14 09:02:48;;;;;;;5.28;1.73;;;;;;;;;;5059774;28;20048;-76
2023/09/14 09:05:17;;;;;;;5.40;1.67;;;;;;;;;;5054486;28;20457;-76
2023/09/14 09:07:44;;;;;;;5.78;1.77;;;;;;;;;;5023869;28;20571;-76
2023/09/14 09:10:24;;;;;;;4.40;1.58;;;;;;;;;;5053258;28;20064;-76
2023/09/14 09:12:52;;;;;;;6.78;1.40;;;;;;;;;;5071830;28;20119;-75
2023/09/14 09:15:17;;;;;;;4.57;1.45;;;;;;;;;;5048664;28;20048;-75
2023/09/14 09:17:46;;;;;;;3.15;1.48;;;;;;;;;;5068544;28;20630;-75
2023/09/14 09:20:22;;;;;;;2.15;1.35;;;;;;;;;;5041901;28;20037;-75
2023/09/14 09:22:49;;;;;;;5.50;1.48;;;;;;;;;;5027850;28;20068;-75
2023/09/14 09:25:15;;;;;;;3.75;1.65;;;;;;;;;;5055267;28;20604;-75
2023/09/14 09:27:40;;;;;;;6.00;1.55;;;;;;;;;;5030795;28;20057;-75
2023/09/14 09:30:08;;;;;;;4.25;1.73;;;;;;;;;;5016978;28;20096;-75
2023/09/14 09:32:36;;;;;;;5.95;1.60;;;;;;;;;;5021987;28;20049;-75
2023/09/14 09:35:17;;;;;;;6.13;1.38;;;;;;;;;;5008379;28;20041;-75
2023/09/14 09:37:42;;;;;;;7.22;1.70;;;;;;;;;;5020595;28;20516;-75
2023/09/14 09:40:19;;;;;;;5.32;1.58;;;;;;;;;;5029240;28;20068;-75
2023/09/14 09:42:45;;;;;;;4.63;1.40;;;;;;;;;;5020324;28;20037;-75
2023/09/14 09:45:13;;;;;;;4.63;1.50;;;;;;;;;;5029707;28;20067;-75
2023/09/14 09:47:39;;;;;;;3.70;1.60;;;;;;;;;;5017855;28;20075;-75
2023/09/14 09:50:11;;;;;;;3.50;1.45;;;;;;;;;;5010165;28;20080;-75
2023/09/14 09:52:38;;;;;;;4.60;1.10;;;;;;;;;;5016676;28;20041;-75
2023/09/14 09:55:05;;;;;;;5.43;1.42;;;;;;;;;;5030619;28;20028;-74
2023/09/14 09:57:37;;;;;;;4.45;1.50;;;;;;;;;;5032362;28;20679;-75
2023/09/14 10:00:12;;;;;;;3.17;1.38;;;;;;;;;;5016025;28;20072;-75
2023/09/14 10:02:37;;;;;;;4.00;1.65;;;;;;;;;;5016235;28;20036;-75
2023/09/14 10:05:03;;;;;;;1.00;0.80;;;;;;;;;;5030341;28;20705;-75
2023/09/14 10:07:28;;;;;;;2.15;0.90;;;;;;;;;;5023621;28;20498;-75
2023/09/14 10:09:54;;;;;;;3.17;1.30;;;;;;;;;;5029494;28;20025;-75
2023/09/14 10:12:27;;;;;;;2.67;1.00;;;;;;;;;;5006261;28;20076;-75
2023/09/14 10:14:58;;;;;;;5.05;1.40;;;;;;;;;;5053868;28;20557;-75
2023/09/14 10:17:24;;;;;;;3.40;1.20;;;;;;;;;;5055445;28;20040;-75
2023/09/14 10:19:50;;;;;;;3.42;1.60;;;;;;;;;;5051074;28;20706;-75
2023/09/14 10:22:17;;;;;;;2.80;1.20;;;;;;;;;;5058463;28;20036;-75
2023/09/14 10:24:43;;;;;;;2.60;1.20;;;;;;;;;;5036684;28;20036;-75
2023/09/14 10:27:09;;;;;;;2.42;0.93;;;;;;;;;;5021806;28;20728;-75
2023/09/14 10:29:38;;;;;;;4.07;1.50;;;;;;;;;;5019609;28;20053;-75
2023/09/14 10:32:05;;;;;;;4.65;1.60;;;;;;;;;;5044139;28;20044;-75
2023/09/14 10:34:34;;;;;;;6.22;1.77;;;;;;;;;;5057269;28;20039;-75
2023/09/14 10:37:01;;;;;;;3.85;1.08;;;;;;;;;;5039157;28;20405;-74
2023/09/14 10:39:26;;;;;;;7.00;1.73;;;;;;;;;;5050342;28;20059;-74
2023/09/14 10:41:52;;;;;;;4.53;1.50;;;;;;;;;;5042626;28;20061;-74
2023/09/14 10:44:18;;;;;;;5.55;1.48;;;;;;;;;;5057035;28;20031;-74
2023/09/14 10:46:46;;;;;;;3.85;1.60;;;;;;;;;;5067781;28;20060;-73
2023/09/14 10:49:12;;;;;;;2.83;1.38;;;;;;;;;;5061187;28;20043;-74
2023/09/14 10:51:37;;;;;;;6.13;1.70;;;;;;;;;;5060660;28;20036;-74
2023/09/14 10:54:03;;;;;;;6.50;1.38;;;;;;;;;;5022768;28;20033;-74
2023/09/14 10:56:32;;;;;;;5.63;1.38;;;;;;;;;;5040072;28;20040;-74
2023/09/14 10:58:59;;;;;;;4.57;1.20;;;;;;;;;;5041109;28;20052;-73
2023/09/14 11:01:28;;;;;;;3.17;1.30;;;;;;;;;;5051245;28;20070;-73
2023/09/14 11:04:11;;;;;;;2.28;1.20;;;;;;;;;;5055974;28;20052;-74
2023/09/14 11:06:44;;;;;;;3.17;1.00;;;;;;;;;;5033909;28;20041;-74
2023/09/14 11:09:09;;;;;;;3.60;1.20;;;;;;;;;;5048824;28;20037;-74
2023/09/14 11:11:39;;;;;;;2.22;1.10;;;;;;;;;;5046932;28;20459;-73
2023/09/14 11:14:10;;;;;;;1.92;1.45;;;;;;;;;;5056418;28;20032;-74
2023/09/14 11:16:46;;;;;;;5.68;1.58;;;;;;;;;;5044645;28;20509;-74
2023/09/14 11:19:31;;;;;;;3.13;1.20;;;;;;;;;;5033829;28;20104;-74
2023/09/14 11:22:17;;;;;;;2.58;1.10;;;;;;;;;;5029691;28;20049;-74
2023/09/14 11:24:43;;;;;;;1.75;1.05;;;;;;;;;;5016021;28;20445;-74
2023/09/14 11:27:17;;;;;;;1.35;1.02;;;;;;;;;;5018713;28;20135;-73
2023/09/14 11:29:44;;;;;;;2.15;1.20;;;;;;;;;;5031727;28;20487;-74
2023/09/14 11:32:11;;;;;;;4.43;1.30;;;;;;;;;;5053220;28;20677;-74
2023/09/14 11:34:38;;;;;;;2.75;1.40;;;;;;;;;;5063466;28;20040;-73
2023/09/14 11:37:07;;;;;;;5.97;1.70;;;;;;;;;;5042546;28;20573;-74
2023/09/14 11:39:34;;;;;;;2.45;1.23;;;;;;;;;;5018522;28;20101;-73
2023/09/14 11:42:01;;;;;;;3.35;1.45;;;;;;;;;;5007537;28;20077;-74
2023/09/14 11:44:29;;;;;;;3.53;1.35;;;;;;;;;;5037535;28;20037;-74
2023/09/14 11:46:57;;;;;;;3.38;1.40;;;;;;;;;;5036703;28;20040;-74
2023/09/14 11:49:28;;;;;;;1.73;1.00;;;;;;;;;;5028350;28;20083;-74
2023/09/14 11:51:54;;;;;;;;;;;;;;;;;;5021824;28;20034;-74
2023/09/14 11:54:20;;;;;;;2.38;1.00;;;;;;;;;;5004676;28;19970;-74
2023/09/14 11:56:46;;;;;;;2.53;1.10;;;;;;;;;;5029040;28;20049;-74
2023/09/14 11:59:11;;;;;;;2.17;1.33;;;;;;;;;;5063918;28;20170;-74
2023/09/14 12:01:37;;;;;;;4.18;1.55;;;;;;;;;;5054626;28;20491;-74
2023/09/14 12:04:04;;;;;;;2.72;1.23;;;;;;;;;;5029738;28;20034;-74
2023/09/14 12:06:30;;;;;;;3.22;1.20;;;;;;;;;;5032664;28;20045;-74
2023/09/14 12:08:57;;;;;;;3.33;1.40;;;;;;;;;;5025084;28;20367;-74
2023/09/14 12:11:22;;;;;;;1.67;1.00;;;;;;;;;;5017750;28;20064;-74
2023/09/14 12:13:53;;;;;;;6.30;1.80;;;;;;;;;;5035337;28;20533;-74
2023/09/14 12:16:23;;;;;;;2.25;1.10;;;;;;;;;;5012156;28;20406;-73
2023/09/14 12:18:49;;;;;;;2.47;1.30;;;;;;;;;;5014538;28;20744;-74
2023/09/14 12:21:15;;;;;;;3.20;1.40;;;;;;;;;;5022804;28;20119;-74
2023/09/14 12:23:45;;;;;;;2.30;1.08;;;;;;;;;;5023105;28;20052;-73
2023/09/14 12:26:14;;;;;;;3.03;1.10;;;;;;;;;;5038446;28;20041;-74
2023/09/14 12:28:43;;;;;;;3.85;1.20;;;;;;;;;;5017341;28;20418;-73
2023/09/14 12:31:10;;;;;;;2.40;1.10;;;;;;;;;;5036080;28;20045;-73
2023/09/14 12:33:37;;;;;;;3.63;1.40;;;;;;;;;;5034099;28;20052;-73
2023/09/14 12:36:03;;;;;;;1.63;0.90;;;;;;;;;;5010355;28;20525;-73
2023/09/14 12:38:30;;;;;;;2.60;1.23;;;;;;;;;;5018745;28;20098;-73
2023/09/14 12:40:57;;;;;;;2.67;1.13;;;;;;;;;;5019072;28;20041;-73
2023/09/14 12:43:24;;;;;;;4.07;1.40;;;;;;;;;;5015628;28;20041;-73
2023/09/14 12:45:50;;;;;;;3.05;1.40;;;;;;;;;;5002261;28;20084;-73
2023/09/14 12:48:16;;;;;;;2.33;1.20;;;;;;;;;;5024488;28;20056;-73
2023/09/14 12:50:42;;;;;;;2.88;1.20;;;;;;;;;;5014676;28;20026;-73
2023/09/14 12:53:09;;;;;;;3.50;1.35;;;;;;;;;;5033725;28;20039;-73
2023/09/14 12:55:39;;;;;;;3.17;1.25;;;;;;;;;;5032386;28;20040;-73
2023/09/14 12:58:04;;;;;;;3.55;1.42;;;;;;;;;;5054796;28;20033;-73
2023/09/14 13:00:33;;;;;;;3.28;1.40;;;;;;;;;;5043409;28;20047;-74
2023/09/14 13:02:58;;;;;;;3.35;1.45;;;;;;;;;;5052030;28;20032;-74
2023/09/14 13:05:24;;;;;;;5.07;1.90;;;;;;;;;;5061090;28;20583;-73
2023/09/14 13:07:51;;;;;;;4.53;1.60;;;;;;;;;;5039846;28;20039;-73
2023/09/14 13:10:19;;;;;;;2.45;1.05;;;;;;;;;;5054333;28;20064;-73
2023/09/14 13:12:51;;;;;;;3.38;1.45;;;;;;;;;;5056170;28;20037;-73
2023/09/14 13:15:22;;;;;;;2.65;1.30;;;;;;;;;;5059701;28;20115;-73
2023/09/14 13:17:48;;;;;;;1.30;0.88;;;;;;;;;;5016836;28;20060;-73
2023/09/14 13:20:13;;;;;;;2.30;1.00;;;;;;;;;;5050906;28;20032;-74
2023/09/14 13:22:39;;;;;;;2.03;0.90;;;;;;;;;;5055423;28;20148;-74
2023/09/14 13:25:05;;;;;;;2.85;1.20;;;;;;;;;;5036647;28;20032;-73
2023/09/14 13:27:34;;;;;;;2.85;1.17;;;;;;;;;;5035786;28;20046;-73
2023/09/14 13:30:01;;;;;;;3.63;1.27;;;;;;;;;;5009300;28;20029;-74
2023/09/14 13:32:26;;;;;;;1.08;0.90;;;;;;;;;;5020837;28;20038;-73
2023/09/14 13:34:51;;;;;;;2.15;1.10;;;;;;;;;;5016606;28;20048;-73
2023/09/14 13:37:17;;;;;;;3.17;1.50;;;;;;;;;;5008898;28;20491;-74
2023/09/14 13:39:42;;;;;;;4.45;1.33;;;;;;;;;;5018985;28;20119;-73
2023/09/14 13:42:07;;;;;;;0.98;0.82;;;;;;;;;;4999573;28;20500;-73
2023/09/14 13:44:33;;;;;;;4.38;1.20;;;;;;;;;;5008967;28;20044;-74
2023/09/14 13:46:58;;;;;;;2.28;1.33;;;;;;;;;;5033545;28;20059;-73
2023/09/14 13:49:24;;;;;;;1.77;1.00;;;;;;;;;;5021913;28;20572;-73
2023/09/14 13:51:49;;;;;;;2.30;1.38;;;;;;;;;;5008133;28;20040;-73
2023/09/14 13:54:15;;;;;;;4.90;1.60;;;;;;;;;;5013095;28;20033;-74
2023/09/14 13:56:40;;;;;;;3.08;1.05;;;;;;;;;;5019136;28;20053;-73
2023/09/14 13:59:05;;;;;;;2.40;1.10;;;;;;;;;;5002686;28;20037;-73
2023/09/14 14:01:31;;;;;;;3.92;1.15;;;;;;;;;;5018224;28;20152;-73
2023/09/14 14:03:56;;;;;;;3.65;1.30;;;;;;;;;;5015176;28;20068;-73
2023/09/14 14:06:22;;;;;;;3.28;1.70;;;;;;;;;;5016391;28;20075;-73
2023/09/14 14:08:47;;;;;;;2.08;1.30;;;;;;;;;;5026871;28;20502;-73
2023/09/14 14:11:13;;;;;;;3.28;1.35;;;;;;;;;;5003480;28;20045;-73
2023/09/14 14:13:38;;;;;;;3.10;1.50;;;;;;;;;;5010446;28;20057;-74
2023/09/14 14:16:04;;;;;;;3.15;1.40;;;;;;;;;;5009627;28;20042;-73
2023/09/14 14:18:29;;;;;;;2.42;1.25;;;;;;;;;;5024498;28;20052;-73
2023/09/14 14:20:55;;;;;;;1.63;1.00;;;;;;;;;;5023501;28;20479;-73
2023/09/14 14:23:20;;;;;;;4.53;1.30;;;;;;;;;;5024942;28;20525;-73
2023/09/14 14:25:45;;;;;;;3.05;1.25;;;;;;;;;;5010923;28;20120;-73
2023/09/14 14:28:11;;;;;;;2.20;1.23;;;;;;;;;;5015785;28;20449;-73
2023/09/14 14:30:36;;;;;;;2.35;1.00;;;;;;;;;;5027968;28;20064;-74
2023/09/14 14:33:02;;;;;;;3.20;1.23;;;;;;;;;;4995100;28;20045;-74
2023/09/14 14:35:28;;;;;;;1.55;1.00;;;;;;;;;;5005143;28;20053;-73
2023/09/14 14:37:53;;;;;;;2.05;1.17;;;;;;;;;;5021440;28;20041;-73
2023/09/14 14:40:18;;;;;;;2.67;1.20;;;;;;;;;;5024403;28;20882;-73